createdAt,value
2023-03-02T00:02:25.637Z,2.22
2023-03-02T00:04:59.010Z,2.40
2023-03-02T00:07:34.818Z,3.15
2023-03-02T00:10:07.891Z,2.92
2023-03-02T00:12:40.572Z,3.20
2023-03-02T00:15:13.151Z,2.78
2023-03-02T00:17:45.707Z,3.28
2023-03-02T00:20:18.516Z,3.40
2023-03-02T00:22:51.215Z,3.28
2023-03-02T00:25:23.728Z,3.33
2023-03-02T00:27:56.243Z,2.75
2023-03-02T00:30:28.814Z,3.30
2023-03-02T00:33:01.334Z,2.38
2023-03-02T00:35:39.620Z,2.90
2023-03-02T00:38:12.541Z,3.38
2023-03-02T00:40:47.008Z,5.85
2023-03-02T00:43:21.981Z,4.03
2023-03-02T00:45:55.560Z,3.22
2023-03-02T00:48:28.043Z,2.88
2023-03-02T00:51:01.551Z,3.10
2023-03-02T00:53:36.536Z,2.50
2023-03-02T00:56:10.929Z,3.03
2023-03-02T00:58:43.541Z,3.17
2023-03-02T01:01:18.502Z,3.13
2023-03-02T01:03:51.516Z,3.42
2023-03-02T01:06:24.028Z,2.85
2023-03-02T01:08:56.529Z,2.88
2023-03-02T01:11:29.068Z,2.70
2023-03-02T01:14:01.589Z,2.67
2023-03-02T01:16:34.480Z,3.00
2023-03-02T01:19:08.000Z,3.28
2023-03-02T01:21:41.564Z,3.25
2023-03-02T01:24:14.144Z,2.95
2023-03-02T01:26:46.643Z,2.60
2023-03-02T01:29:19.678Z,3.03
2023-03-02T01:31:52.296Z,2.63
2023-03-02T01:34:24.980Z,3.00
2023-03-02T01:36:57.573Z,2.97
2023-03-02T01:39:30.109Z,2.83
2023-03-02T01:42:02.732Z,1.95
2023-03-02T01:44:52.495Z,2.50
2023-03-02T01:50:20.752Z,3.65
2023-03-02T01:52:55.496Z,2.80
2023-03-02T01:55:33.895Z,2.63
2023-03-02T01:58:08.132Z,2.38
2023-03-02T02:00:41.900Z,3.08
2023-03-02T02:03:21.087Z,2.25
2023-03-02T02:06:22.144Z,3.05
2023-03-02T02:08:58.191Z,2.13
2023-03-02T02:11:31.493Z,3.22
2023-03-02T02:14:05.196Z,3.25
2023-03-02T02:16:39.219Z,3.70
2023-03-02T02:19:45.954Z,3.85
2023-03-02T02:22:32.201Z,3.20
2023-03-02T02:25:39.869Z,3.30
2023-03-02T02:28:21.722Z,3.72
2023-03-02T02:31:13.339Z,2.97
2023-03-02T02:33:52.865Z,2.95
2023-03-02T02:36:38.653Z,3.05
2023-03-02T02:39:21.879Z,3.17
2023-03-02T02:44:31.753Z,3.38
2023-03-02T02:47:17.229Z,3.25
2023-03-02T02:49:54.198Z,3.45
2023-03-02T02:52:28.891Z,3.30
2023-03-02T02:55:02.732Z,3.92
2023-03-02T02:57:35.385Z,3.03
2023-03-02T03:00:20.031Z,3.60
2023-03-02T03:03:05.058Z,3.67
2023-03-02T03:05:37.685Z,4.53
2023-03-02T03:08:30.862Z,3.30
2023-03-02T03:11:03.727Z,3.47
2023-03-02T03:13:38.435Z,4.60
2023-03-02T03:16:16.400Z,3.80
2023-03-02T03:18:51.213Z,4.88
2023-03-02T03:21:23.707Z,4.43
2023-03-02T03:23:56.263Z,5.72
2023-03-02T03:26:29.359Z,5.53
2023-03-02T03:29:02.795Z,3.70
2023-03-02T03:31:35.704Z,4.63
2023-03-02T03:34:10.860Z,6.53
2023-03-02T03:36:43.710Z,5.70
2023-03-02T03:39:18.173Z,5.65
2023-03-02T03:41:50.791Z,6.45
2023-03-02T03:44:23.496Z,7.05
2023-03-02T03:46:56.242Z,6.43
2023-03-02T03:49:28.931Z,6.85
2023-03-02T03:52:01.400Z,7.60
2023-03-02T03:54:34.056Z,7.15
2023-03-02T03:57:06.776Z,7.55
2023-03-02T03:59:39.329Z,7.45
2023-03-02T04:02:12.196Z,7.95
2023-03-02T04:04:46.212Z,7.72
2023-03-02T04:07:19.116Z,8.02
2023-03-02T04:10:03.534Z,8.45
2023-03-02T04:12:40.150Z,6.97
2023-03-02T04:15:16.252Z,9.05
2023-03-02T04:17:49.075Z,8.43
2023-03-02T04:20:24.080Z,8.77
2023-03-02T04:22:58.715Z,8.45
2023-03-02T04:25:31.490Z,8.20
2023-03-02T04:28:04.193Z,9.40
2023-03-02T04:30:36.770Z,9.40
2023-03-02T04:33:09.320Z,8.60
2023-03-02T04:35:41.879Z,9.07
2023-03-02T04:38:15.139Z,8.60
2023-03-02T04:40:47.783Z,8.52
2023-03-02T04:43:20.284Z,8.68
2023-03-02T04:45:54.375Z,9.52
2023-03-02T04:48:27.074Z,8.43
2023-03-02T04:50:59.603Z,8.88
2023-03-02T04:53:32.134Z,9.65
2023-03-02T04:56:05.044Z,7.35
2023-03-02T04:58:37.538Z,10.02
2023-03-02T05:01:12.233Z,8.05
2023-03-02T05:03:45.267Z,7.35
2023-03-02T05:06:18.512Z,8.75
2023-03-02T05:08:53.042Z,8.57
2023-03-02T05:11:26.281Z,9.27
2023-03-02T05:14:03.575Z,8.27
2023-03-02T05:16:40.373Z,9.35
2023-03-02T05:21:46.157Z,8.75
2023-03-02T05:24:18.901Z,8.68
2023-03-02T05:26:51.500Z,7.97
2023-03-02T05:29:24.039Z,7.75
2023-03-02T05:31:57.118Z,8.75
2023-03-02T05:34:29.774Z,8.60
2023-03-02T05:37:02.303Z,8.40
2023-03-02T05:39:34.821Z,9.93
2023-03-02T05:42:07.404Z,9.82
2023-03-02T05:44:40.051Z,9.25
2023-03-02T05:47:12.588Z,8.52
2023-03-02T05:49:45.184Z,8.77
2023-03-02T05:52:17.717Z,9.18
2023-03-02T05:54:50.273Z,10.27
2023-03-02T05:57:22.863Z,10.05
2023-03-02T05:59:55.396Z,9.45
2023-03-02T06:02:28.054Z,8.63
2023-03-02T06:05:00.597Z,9.05
2023-03-02T06:07:33.141Z,8.18
2023-03-02T06:10:07.501Z,9.93
2023-03-02T06:12:40.746Z,10.00
2023-03-02T06:15:13.541Z,10.75
2023-03-02T06:17:46.073Z,10.00
2023-03-02T06:20:18.757Z,8.60
2023-03-02T06:22:51.571Z,11.63
2023-03-02T06:25:25.345Z,11.30
2023-03-02T06:27:58.056Z,9.98
2023-03-02T06:30:30.615Z,11.15
2023-03-02T06:33:03.310Z,9.77
2023-03-02T06:35:35.986Z,8.70
2023-03-02T06:38:08.574Z,10.30
2023-03-02T06:40:41.098Z,12.18
2023-03-02T06:43:14.822Z,11.25
2023-03-02T06:45:47.504Z,10.50
2023-03-02T06:48:20.055Z,10.05
2023-03-02T06:50:52.602Z,10.93
2023-03-02T06:53:25.243Z,11.38
2023-03-02T06:55:57.753Z,10.98
2023-03-02T06:58:30.334Z,11.70
2023-03-02T07:01:03.723Z,7.55
2023-03-02T07:03:36.941Z,12.50
2023-03-02T07:06:12.352Z,10.48
2023-03-02T07:08:45.756Z,11.27
2023-03-02T07:11:18.452Z,11.25
2023-03-02T07:13:51.325Z,11.20
2023-03-02T07:16:23.950Z,10.25
2023-03-02T07:18:56.871Z,10.23
2023-03-02T07:21:29.601Z,10.38
2023-03-02T07:24:02.145Z,10.25
2023-03-02T07:26:34.696Z,9.88
2023-03-02T07:29:07.267Z,9.57
2023-03-02T07:31:39.770Z,11.65
2023-03-02T07:34:12.276Z,8.95
2023-03-02T07:36:44.812Z,8.43
2023-03-02T07:39:18.078Z,11.48
2023-03-02T07:41:50.752Z,9.52
2023-03-02T07:44:23.301Z,11.52
2023-03-02T07:46:56.633Z,10.20
2023-03-02T07:49:29.231Z,11.65
2023-03-02T07:52:03.756Z,8.40
2023-03-02T07:54:36.458Z,12.25
2023-03-02T07:57:08.998Z,11.05
2023-03-02T07:59:42.799Z,9.60
2023-03-02T08:02:18.104Z,8.98
2023-03-02T08:04:52.307Z,8.82
2023-03-02T08:07:24.928Z,8.38
2023-03-02T08:09:58.015Z,9.27
2023-03-02T08:12:30.858Z,8.88
2023-03-02T08:15:05.006Z,9.65
2023-03-02T08:17:37.745Z,8.88
2023-03-02T08:20:10.927Z,9.68
2023-03-02T08:22:43.458Z,8.95
2023-03-02T08:25:16.142Z,8.73
2023-03-02T08:27:48.814Z,10.50
2023-03-02T08:30:21.450Z,9.60
2023-03-02T08:32:53.948Z,8.60
2023-03-02T08:35:26.772Z,9.23
2023-03-02T08:37:59.724Z,9.00
2023-03-02T08:40:32.625Z,9.85
2023-03-02T08:43:07.729Z,9.57
2023-03-02T08:45:40.567Z,8.82
2023-03-02T08:48:13.165Z,7.43
2023-03-02T08:50:57.560Z,7.85
2023-03-02T08:53:34.660Z,8.00
2023-03-02T08:56:38.370Z,8.88
2023-03-02T08:59:13.602Z,6.95
2023-03-02T09:01:46.191Z,8.90
2023-03-02T09:04:19.064Z,7.85
2023-03-02T09:06:51.724Z,7.22
2023-03-02T09:09:24.244Z,7.78
2023-03-02T09:11:56.752Z,7.60
2023-03-02T09:14:29.314Z,8.02
2023-03-02T09:17:01.987Z,7.15
2023-03-02T09:19:43.284Z,8.27
2023-03-02T09:22:17.495Z,7.50
2023-03-02T09:24:50.162Z,7.85
2023-03-02T09:27:22.699Z,6.35
2023-03-02T09:29:55.450Z,6.60
2023-03-02T09:32:28.102Z,7.32
2023-03-02T09:35:00.865Z,5.97
2023-03-02T09:37:35.106Z,7.28
2023-03-02T09:40:28.962Z,6.22
2023-03-02T09:43:16.352Z,7.28
2023-03-02T09:45:59.441Z,6.35
2023-03-02T09:48:38.651Z,6.65
2023-03-02T09:51:39.961Z,5.70
2023-03-02T09:54:21.071Z,6.85
2023-03-02T09:56:59.816Z,7.25
2023-03-02T09:59:45.168Z,6.90
2023-03-02T10:02:40.860Z,6.30
2023-03-02T10:05:31.130Z,7.15
2023-03-02T10:08:03.834Z,7.35
2023-03-02T10:10:53.115Z,6.55
2023-03-02T10:13:47.655Z,5.75
2023-03-02T10:17:09.620Z,6.22
2023-03-02T10:19:50.397Z,5.90
2023-03-02T10:22:38.211Z,6.30
2023-03-02T10:25:50.445Z,5.80
2023-03-02T10:28:32.062Z,5.13
2023-03-02T10:31:25.056Z,5.60
2023-03-02T10:33:59.163Z,4.72
2023-03-02T10:36:39.662Z,5.78
2023-03-02T10:39:17.765Z,5.28
2023-03-02T10:41:59.112Z,5.57
2023-03-02T10:44:38.137Z,5.63
2023-03-02T10:47:25.375Z,6.20
2023-03-02T10:49:58.189Z,6.18
2023-03-02T10:52:30.757Z,5.78
2023-03-02T10:55:07.352Z,5.50
2023-03-02T10:57:46.273Z,6.63
2023-03-02T11:00:27.641Z,5.63
2023-03-02T11:03:05.673Z,5.32
2023-03-02T11:05:44.347Z,6.05
2023-03-02T11:08:21.345Z,5.25
2023-03-02T11:11:01.624Z,5.63
2023-03-02T11:13:38.799Z,5.30
2023-03-02T11:16:17.213Z,6.13
2023-03-02T11:18:58.777Z,5.15
2023-03-02T11:22:36.392Z,6.30
2023-03-02T11:25:27.956Z,5.38
2023-03-02T11:28:22.463Z,4.43
2023-03-02T11:30:59.711Z,5.35
2023-03-02T11:33:48.913Z,5.30
2023-03-02T11:39:09.083Z,5.88
2023-03-02T11:41:41.989Z,6.00
2023-03-02T11:44:20.454Z,6.63
2023-03-02T11:47:01.369Z,7.38
2023-03-02T11:50:03.665Z,7.25
2023-03-02T11:55:12.030Z,5.72
2023-03-02T11:57:50.373Z,6.78
2023-03-02T12:00:38.841Z,6.72
2023-03-02T12:03:17.353Z,6.57
2023-03-02T12:05:52.550Z,7.43
2023-03-02T12:08:24.963Z,6.50
2023-03-02T12:11:18.652Z,6.53
2023-03-02T12:14:05.902Z,6.03
2023-03-02T12:16:41.733Z,6.07
2023-03-02T12:19:17.474Z,6.93
2023-03-02T12:22:02.223Z,5.75
2023-03-02T12:24:39.073Z,6.00
2023-03-02T12:27:20.817Z,6.43
2023-03-02T12:30:26.915Z,6.25
2023-03-02T12:33:22.401Z,6.03
2023-03-02T12:36:12.352Z,5.60
2023-03-02T12:39:05.092Z,6.70
2023-03-02T12:42:04.270Z,6.05
2023-03-02T12:45:20.236Z,6.22
2023-03-02T12:48:04.676Z,6.15
2023-03-02T12:50:40.811Z,5.72
2023-03-02T12:53:19.936Z,6.35
2023-03-02T12:55:52.520Z,6.28
2023-03-02T12:58:29.063Z,6.38
2023-03-02T13:01:03.846Z,6.05
2023-03-02T13:03:48.030Z,4.93
2023-03-02T13:06:23.018Z,5.28
2023-03-02T13:08:59.232Z,5.63
2023-03-02T13:11:36.866Z,5.18
2023-03-02T13:14:22.163Z,5.80
2023-03-02T13:17:05.548Z,5.30
2023-03-02T13:19:38.217Z,5.43
2023-03-02T13:22:12.339Z,5.43
2023-03-02T13:24:55.701Z,4.82
2023-03-02T13:27:29.978Z,5.63
2023-03-02T13:30:32.835Z,5.05
2023-03-02T13:33:22.978Z,5.28
2023-03-02T13:35:56.701Z,5.10
2023-03-02T13:38:38.544Z,5.05
2023-03-02T13:41:24.292Z,5.53
2023-03-02T13:44:16.824Z,5.38
2023-03-02T13:46:49.433Z,5.30
2023-03-02T13:49:36.103Z,3.88
2023-03-02T13:52:27.118Z,4.40
2023-03-02T13:54:59.660Z,4.07
2023-03-02T13:57:33.112Z,5.07
2023-03-02T14:00:13.750Z,4.78
2023-03-02T14:02:48.608Z,4.20
2023-03-02T14:05:27.028Z,5.22
2023-03-02T14:08:00.927Z,5.05
2023-03-02T14:10:33.504Z,4.40
2023-03-02T14:13:13.648Z,5.13
2023-03-02T14:15:51.162Z,4.57
2023-03-02T14:18:39.586Z,4.07
2023-03-02T14:21:19.784Z,4.22
2023-03-02T14:23:53.904Z,4.93
2023-03-02T14:26:43.442Z,4.60
2023-03-02T14:29:27.941Z,4.43
2023-03-02T14:32:08.880Z,4.72
2023-03-02T14:34:43.145Z,4.25
2023-03-02T14:37:21.571Z,4.57
2023-03-02T14:39:55.617Z,4.60
2023-03-02T14:42:28.200Z,4.40
2023-03-02T14:45:00.721Z,4.60
2023-03-02T14:47:33.232Z,4.30
2023-03-02T14:50:06.545Z,4.32
2023-03-02T14:52:55.283Z,3.75
2023-03-02T14:55:31.945Z,3.60
2023-03-02T14:58:16.487Z,4.15
2023-03-02T15:00:49.089Z,4.18
2023-03-02T15:03:25.588Z,4.00
2023-03-02T15:06:01.739Z,4.15
2023-03-02T15:08:34.675Z,3.95
2023-03-02T15:11:07.223Z,4.03
2023-03-02T15:13:39.696Z,4.00
2023-03-02T15:16:12.585Z,3.28
2023-03-02T15:18:45.469Z,3.33
2023-03-02T15:21:24.283Z,3.83
2023-03-02T15:23:56.885Z,3.85
2023-03-02T15:26:29.482Z,4.55
2023-03-02T15:29:02.305Z,3.45
2023-03-02T15:31:35.212Z,3.67
2023-03-02T15:34:08.198Z,4.57
2023-03-02T15:36:40.776Z,5.25
2023-03-02T15:39:14.723Z,4.13
2023-03-02T15:41:47.288Z,4.20
2023-03-02T15:44:23.853Z,4.22
2023-03-02T15:46:59.865Z,5.03
2023-03-02T15:49:32.901Z,3.75
2023-03-02T15:52:06.039Z,4.13
2023-03-02T15:54:40.352Z,3.78
2023-03-02T15:57:12.893Z,3.67
2023-03-02T15:59:46.280Z,4.70
2023-03-02T16:02:18.896Z,5.28
2023-03-02T16:04:51.428Z,4.35
2023-03-02T16:07:23.956Z,4.75
2023-03-02T16:09:56.666Z,5.45
2023-03-02T16:12:29.240Z,4.63
2023-03-02T16:15:01.774Z,5.05
2023-03-02T16:17:34.362Z,5.60
2023-03-02T16:20:07.305Z,5.40
2023-03-02T16:22:39.858Z,4.50
2023-03-02T16:25:12.671Z,4.57
2023-03-02T16:27:47.501Z,4.95
2023-03-02T16:30:23.034Z,5.22
2023-03-02T16:33:05.795Z,4.18
2023-03-02T16:35:38.611Z,4.25
2023-03-02T16:38:11.508Z,4.28
2023-03-02T16:40:44.036Z,4.97
2023-03-02T16:43:16.617Z,5.88
2023-03-02T16:45:50.126Z,4.22
2023-03-02T16:48:23.173Z,4.50
2023-03-02T16:50:57.382Z,5.05
2023-03-02T16:53:29.884Z,3.95
2023-03-02T16:56:02.920Z,5.25
2023-03-02T16:58:38.269Z,4.53
2023-03-02T17:01:15.348Z,3.70
2023-03-02T17:03:50.653Z,4.25
2023-03-02T17:06:24.512Z,4.55
2023-03-02T17:08:57.034Z,4.75
2023-03-02T17:11:31.294Z,4.18
2023-03-02T17:14:03.819Z,4.72
2023-03-02T17:16:36.330Z,4.72
2023-03-02T17:19:08.869Z,6.93
2023-03-02T17:21:41.478Z,5.43
2023-03-02T17:24:14.037Z,5.63
2023-03-02T17:26:47.182Z,4.47
2023-03-02T17:29:19.828Z,4.85
2023-03-02T17:31:53.246Z,4.60
2023-03-02T17:34:30.552Z,5.88
2023-03-02T17:37:03.106Z,5.43
2023-03-02T17:39:36.312Z,4.85
2023-03-02T17:42:08.956Z,5.68
2023-03-02T17:44:41.802Z,5.25
2023-03-02T17:47:15.713Z,5.80
2023-03-02T17:49:48.423Z,4.30
2023-03-02T17:52:21.785Z,4.50
2023-03-02T17:54:54.330Z,5.07
2023-03-02T17:57:27.983Z,4.45
2023-03-02T18:00:00.518Z,5.65
2023-03-02T18:02:34.266Z,4.88
2023-03-02T18:05:09.963Z,4.85
2023-03-02T18:07:42.533Z,4.20
2023-03-02T18:10:15.185Z,5.10
2023-03-02T18:12:48.542Z,5.43
2023-03-02T18:15:21.232Z,4.30
2023-03-02T18:17:54.036Z,5.45
2023-03-02T18:20:26.833Z,5.18
2023-03-02T18:22:59.925Z,4.68
2023-03-02T18:25:32.719Z,5.18
2023-03-02T18:28:05.912Z,5.60
2023-03-02T18:30:38.646Z,5.57
2023-03-02T18:33:11.623Z,5.38
2023-03-02T18:35:44.393Z,6.55
2023-03-02T18:38:16.905Z,6.55
2023-03-02T18:40:49.625Z,6.53
2023-03-02T18:43:22.260Z,5.15
2023-03-02T18:45:54.851Z,6.50
2023-03-02T18:48:28.580Z,5.32
2023-03-02T18:51:01.070Z,5.70
2023-03-02T18:53:34.017Z,6.75
2023-03-02T18:56:06.823Z,6.00
2023-03-02T18:58:39.775Z,5.90
2023-03-02T19:01:12.661Z,6.40
2023-03-02T19:03:45.987Z,5.40
2023-03-02T19:06:20.473Z,5.70
2023-03-02T19:08:52.992Z,5.68
2023-03-02T19:11:25.612Z,5.78
2023-03-02T19:13:58.131Z,5.88
2023-03-02T19:16:30.749Z,6.97
2023-03-02T19:19:03.450Z,5.60
2023-03-02T19:21:36.046Z,6.35
2023-03-02T19:24:08.706Z,5.68
2023-03-02T19:26:41.258Z,7.07
2023-03-02T19:29:13.798Z,5.95
2023-03-02T19:31:46.363Z,6.45
2023-03-02T19:34:18.955Z,6.78
2023-03-02T19:36:51.568Z,6.63
2023-03-02T19:39:24.059Z,7.00
2023-03-02T19:41:56.584Z,7.00
2023-03-02T19:44:29.088Z,6.88
2023-03-02T19:47:01.637Z,6.47
2023-03-02T19:49:34.271Z,7.03
2023-03-02T19:52:06.820Z,7.10
2023-03-02T19:54:39.306Z,7.43
2023-03-02T19:57:11.934Z,7.75
2023-03-02T19:59:44.510Z,6.57
2023-03-02T20:02:18.439Z,6.15
2023-03-02T20:04:52.045Z,7.63
2023-03-02T20:07:24.588Z,8.35
2023-03-02T20:09:57.231Z,6.13
2023-03-02T20:12:29.795Z,7.35
2023-03-02T20:15:04.691Z,7.18
2023-03-02T20:17:37.221Z,7.57
2023-03-02T20:20:12.480Z,7.20
2023-03-02T20:22:45.465Z,9.13
2023-03-02T20:25:19.765Z,7.28
2023-03-02T20:27:53.119Z,7.03
2023-03-02T20:30:32.883Z,6.65
2023-03-02T20:33:08.374Z,6.97
2023-03-02T20:35:45.133Z,7.90
2023-03-02T20:38:36.461Z,6.57
2023-03-02T20:41:11.726Z,7.10
2023-03-02T20:43:44.970Z,7.90
2023-03-02T20:46:25.207Z,8.45
2023-03-02T20:48:58.998Z,7.85
2023-03-02T20:51:31.891Z,7.40
2023-03-02T20:54:05.700Z,6.70
2023-03-02T20:56:38.332Z,7.03
2023-03-02T20:59:10.916Z,6.63
2023-03-02T21:01:43.763Z,5.57
2023-03-02T21:04:16.752Z,6.55
2023-03-02T21:06:50.213Z,5.43
2023-03-02T21:09:22.814Z,4.90
2023-03-02T21:11:58.041Z,6.65
2023-03-02T21:14:33.269Z,5.50
2023-03-02T21:17:06.940Z,6.18
2023-03-02T21:19:39.459Z,7.18
2023-03-02T21:22:12.011Z,6.38
2023-03-02T21:24:44.566Z,5.80
2023-03-02T21:27:17.103Z,6.72
2023-03-02T21:29:49.685Z,6.30
2023-03-02T21:32:22.273Z,7.10
2023-03-02T21:34:54.874Z,7.47
2023-03-02T21:37:27.483Z,6.90
2023-03-02T21:40:00.081Z,5.55
2023-03-02T21:42:32.682Z,7.32
2023-03-02T21:45:07.615Z,6.70
2023-03-02T21:47:43.579Z,7.57
2023-03-02T21:50:23.520Z,8.07
2023-03-02T21:52:59.148Z,7.82
2023-03-02T21:55:32.858Z,6.38
2023-03-02T21:58:06.101Z,6.97
2023-03-02T22:00:40.357Z,6.95
2023-03-02T22:03:14.253Z,6.60
2023-03-02T22:05:46.856Z,8.20
2023-03-02T22:08:21.515Z,7.90
2023-03-02T22:10:54.200Z,6.97
2023-03-02T22:13:34.295Z,7.95
2023-03-02T22:16:23.263Z,7.97
2023-03-02T22:18:59.641Z,7.43
2023-03-02T22:21:36.488Z,7.30
2023-03-02T22:24:08.847Z,8.07
2023-03-02T22:26:57.627Z,7.82
2023-03-02T22:29:42.700Z,10.02
2023-03-02T22:32:17.889Z,8.93
2023-03-02T22:34:54.196Z,7.50
2023-03-02T22:37:34.449Z,8.68
2023-03-02T22:40:29.523Z,6.65
2023-03-02T22:43:11.216Z,8.20
2023-03-02T22:45:43.836Z,7.68
2023-03-02T22:48:22.921Z,9.30
2023-03-02T22:50:55.427Z,8.80
2023-03-02T22:53:31.580Z,8.50
2023-03-02T22:56:34.457Z,9.20
2023-03-02T22:59:24.700Z,9.02
2023-03-02T23:02:06.193Z,9.85
2023-03-02T23:04:39.465Z,10.50
2023-03-02T23:07:18.588Z,9.77
2023-03-02T23:09:51.182Z,9.45
2023-03-02T23:12:27.560Z,8.45
2023-03-02T23:15:00.134Z,8.52
2023-03-02T23:17:39.320Z,9.93
2023-03-02T23:20:15.504Z,9.50
2023-03-02T23:22:49.970Z,11.00
2023-03-02T23:25:22.652Z,9.02
2023-03-02T23:27:55.229Z,9.07
2023-03-02T23:30:27.808Z,9.20
2023-03-02T23:33:00.405Z,9.07
2023-03-02T23:35:33.222Z,9.73
2023-03-02T23:38:05.751Z,9.55
2023-03-02T23:40:38.559Z,9.88
2023-03-02T23:43:11.079Z,9.63
2023-03-02T23:45:43.585Z,9.65
2023-03-02T23:48:17.149Z,8.88
2023-03-02T23:50:49.768Z,9.20
2023-03-02T23:53:22.246Z,9.35
2023-03-02T23:55:55.340Z,9.70
2023-03-02T23:58:27.855Z,8.65
